sensor_id;sensor_type;location;lat;lon;timestamp;P1;durP1;ratioP1;P2;durP2;ratioP2
3253;SDS011;1639;42.804;23.342;2023-06-04T00:01:05;9.00;;;2.57;;
3253;SDS011;1639;42.804;23.342;2023-06-04T00:03:30;5.40;;;2.17;;
3253;SDS011;1639;42.804;23.342;2023-06-04T00:05:56;6.97;;;2.57;;
3253;SDS011;1639;42.804;23.342;2023-06-04T00:08:22;5.60;;;1.80;;
3253;SDS011;1639;42.804;23.342;2023-06-04T00:10:47;5.50;;;2.37;;
3253;SDS011;1639;42.804;23.342;2023-06-04T00:13:13;6.10;;;2.60;;
3253;SDS011;1639;42.804;23.342;2023-06-04T00:15:38;4.87;;;1.57;;
3253;SDS011;1639;42.804;23.342;2023-06-04T00:18:04;5.30;;;2.23;;
3253;SDS011;1639;42.804;23.342;2023-06-04T00:20:29;5.20;;;2.10;;
3253;SDS011;1639;42.804;23.342;2023-06-04T00:22:55;7.43;;;2.33;;
3253;SDS011;1639;42.804;23.342;2023-06-04T00:25:20;6.93;;;2.97;;
3253;SDS011;1639;42.804;23.342;2023-06-04T00:27:45;6.30;;;2.20;;
3253;SDS011;1639;42.804;23.342;2023-06-04T00:30:11;5.37;;;2.30;;
3253;SDS011;1639;42.804;23.342;2023-06-04T00:32:37;7.23;;;2.47;;
3253;SDS011;1639;42.804;23.342;2023-06-04T00:35:02;6.90;;;2.23;;
3253;SDS011;1639;42.804;23.342;2023-06-04T00:37:28;5.77;;;2.17;;
3253;SDS011;1639;42.804;23.342;2023-06-04T00:39:54;8.10;;;2.80;;
3253;SDS011;1639;42.804;23.342;2023-06-04T00:42:20;5.87;;;2.60;;
3253;SDS011;1639;42.804;23.342;2023-06-04T00:44:46;12.50;;;3.93;;
3253;SDS011;1639;42.804;23.342;2023-06-04T00:47:15;6.80;;;2.70;;
3253;SDS011;1639;42.804;23.342;2023-06-04T00:49:43;5.70;;;3.10;;
3253;SDS011;1639;42.804;23.342;2023-06-04T00:52:08;5.50;;;2.50;;
3253;SDS011;1639;42.804;23.342;2023-06-04T00:54:35;5.10;;;1.90;;
3253;SDS011;1639;42.804;23.342;2023-06-04T00:57:04;8.43;;;3.23;;
3253;SDS011;1639;42.804;23.342;2023-06-04T00:59:30;8.20;;;2.30;;
3253;SDS011;1639;42.804;23.342;2023-06-04T01:04:32;7.33;;;2.83;;
3253;SDS011;1639;42.804;23.342;2023-06-04T01:07:02;8.03;;;3.17;;
3253;SDS011;1639;42.804;23.342;2023-06-04T01:09:29;5.63;;;2.67;;
3253;SDS011;1639;42.804;23.342;2023-06-04T01:11:55;6.70;;;3.00;;
3253;SDS011;1639;42.804;23.342;2023-06-04T01:14:26;7.27;;;2.57;;
3253;SDS011;1639;42.804;23.342;2023-06-04T01:16:56;6.97;;;2.90;;
3253;SDS011;1639;42.804;23.342;2023-06-04T01:28:02;6.50;;;3.17;;
3253;SDS011;1639;42.804;23.342;2023-06-04T01:30:30;7.73;;;3.53;;
3253;SDS011;1639;42.804;23.342;2023-06-04T01:32:58;6.17;;;2.33;;
3253;SDS011;1639;42.804;23.342;2023-06-04T01:35:25;7.33;;;2.57;;
3253;SDS011;1639;42.804;23.342;2023-06-04T01:37:51;5.90;;;2.50;;
3253;SDS011;1639;42.804;23.342;2023-06-04T01:40:17;7.03;;;2.80;;
3253;SDS011;1639;42.804;23.342;2023-06-04T01:42:43;8.30;;;2.60;;
3253;SDS011;1639;42.804;23.342;2023-06-04T01:45:09;5.40;;;2.33;;
3253;SDS011;1639;42.804;23.342;2023-06-04T01:47:35;5.27;;;2.37;;
3253;SDS011;1639;42.804;23.342;2023-06-04T01:50:01;6.30;;;3.00;;
3253;SDS011;1639;42.804;23.342;2023-06-04T01:52:30;5.90;;;2.80;;
3253;SDS011;1639;42.804;23.342;2023-06-04T01:54:56;7.50;;;3.23;;
3253;SDS011;1639;42.804;23.342;2023-06-04T01:57:21;5.70;;;2.90;;
3253;SDS011;1639;42.804;23.342;2023-06-04T01:59:47;6.20;;;3.30;;
3253;SDS011;1639;42.804;23.342;2023-06-04T02:02:13;6.47;;;2.17;;
3253;SDS011;1639;42.804;23.342;2023-06-04T02:04:40;6.23;;;2.57;;
3253;SDS011;1639;42.804;23.342;2023-06-04T02:07:09;8.00;;;2.53;;
3253;SDS011;1639;42.804;23.342;2023-06-04T02:09:35;6.40;;;2.90;;
3253;SDS011;1639;42.804;23.342;2023-06-04T02:12:00;7.70;;;3.10;;
3253;SDS011;1639;42.804;23.342;2023-06-04T02:14:26;9.20;;;3.30;;
3253;SDS011;1639;42.804;23.342;2023-06-04T02:16:51;6.13;;;3.47;;
3253;SDS011;1639;42.804;23.342;2023-06-04T02:19:23;11.70;;;3.10;;
3253;SDS011;1639;42.804;23.342;2023-06-04T02:21:51;7.23;;;3.37;;
3253;SDS011;1639;42.804;23.342;2023-06-04T02:24:16;10.20;;;3.03;;
3253;SDS011;1639;42.804;23.342;2023-06-04T02:26:42;6.70;;;3.23;;
3253;SDS011;1639;42.804;23.342;2023-06-04T02:29:07;7.23;;;2.50;;
3253;SDS011;1639;42.804;23.342;2023-06-04T02:31:32;8.37;;;3.67;;
3253;SDS011;1639;42.804;23.342;2023-06-04T02:33:58;6.03;;;2.90;;
3253;SDS011;1639;42.804;23.342;2023-06-04T02:36:23;8.10;;;3.10;;
3253;SDS011;1639;42.804;23.342;2023-06-04T02:38:48;6.73;;;2.50;;
3253;SDS011;1639;42.804;23.342;2023-06-04T02:41:14;9.10;;;3.70;;
3253;SDS011;1639;42.804;23.342;2023-06-04T02:43:40;5.53;;;2.17;;
3253;SDS011;1639;42.804;23.342;2023-06-04T02:46:05;6.57;;;3.20;;
3253;SDS011;1639;42.804;23.342;2023-06-04T02:48:31;9.03;;;3.30;;
3253;SDS011;1639;42.804;23.342;2023-06-04T02:50:56;7.87;;;2.77;;
3253;SDS011;1639;42.804;23.342;2023-06-04T02:53:22;7.37;;;3.20;;
3253;SDS011;1639;42.804;23.342;2023-06-04T02:55:48;5.70;;;2.60;;
3253;SDS011;1639;42.804;23.342;2023-06-04T02:58:15;5.20;;;2.30;;
3253;SDS011;1639;42.804;23.342;2023-06-04T03:00:41;5.27;;;2.03;;
3253;SDS011;1639;42.804;23.342;2023-06-04T03:03:06;6.03;;;2.97;;
3253;SDS011;1639;42.804;23.342;2023-06-04T03:05:32;6.00;;;2.73;;
3253;SDS011;1639;42.804;23.342;2023-06-04T03:07:58;5.43;;;2.10;;
3253;SDS011;1639;42.804;23.342;2023-06-04T03:10:24;7.03;;;2.67;;
3253;SDS011;1639;42.804;23.342;2023-06-04T03:12:50;5.13;;;2.00;;
3253;SDS011;1639;42.804;23.342;2023-06-04T03:15:15;6.57;;;2.10;;
3253;SDS011;1639;42.804;23.342;2023-06-04T03:17:41;6.57;;;1.93;;
3253;SDS011;1639;42.804;23.342;2023-06-04T03:20:07;5.03;;;1.60;;
3253;SDS011;1639;42.804;23.342;2023-06-04T03:22:34;5.77;;;2.20;;
3253;SDS011;1639;42.804;23.342;2023-06-04T03:25:00;10.00;;;2.03;;
3253;SDS011;1639;42.804;23.342;2023-06-04T03:27:26;5.43;;;1.97;;
3253;SDS011;1639;42.804;23.342;2023-06-04T03:29:51;6.10;;;2.40;;
3253;SDS011;1639;42.804;23.342;2023-06-04T03:32:17;5.60;;;2.00;;
3253;SDS011;1639;42.804;23.342;2023-06-04T03:34:42;5.20;;;1.73;;
3253;SDS011;1639;42.804;23.342;2023-06-04T03:37:09;6.60;;;3.30;;
3253;SDS011;1639;42.804;23.342;2023-06-04T03:39:34;5.50;;;2.20;;
3253;SDS011;1639;42.804;23.342;2023-06-04T03:42:00;5.63;;;2.17;;
3253;SDS011;1639;42.804;23.342;2023-06-04T03:44:25;6.93;;;2.50;;
3253;SDS011;1639;42.804;23.342;2023-06-04T03:46:51;5.80;;;2.37;;
3253;SDS011;1639;42.804;23.342;2023-06-04T03:49:16;5.70;;;2.23;;
3253;SDS011;1639;42.804;23.342;2023-06-04T03:51:42;5.60;;;2.70;;
3253;SDS011;1639;42.804;23.342;2023-06-04T03:54:07;5.50;;;2.43;;
3253;SDS011;1639;42.804;23.342;2023-06-04T03:56:33;7.83;;;2.83;;
3253;SDS011;1639;42.804;23.342;2023-06-04T03:58:58;6.33;;;2.07;;
3253;SDS011;1639;42.804;23.342;2023-06-04T04:01:24;5.03;;;2.10;;
3253;SDS011;1639;42.804;23.342;2023-06-04T04:03:50;7.90;;;2.00;;
3253;SDS011;1639;42.804;23.342;2023-06-04T04:06:16;9.37;;;2.37;;
3253;SDS011;1639;42.804;23.342;2023-06-04T04:08:42;5.63;;;2.43;;
3253;SDS011;1639;42.804;23.342;2023-06-04T04:11:09;9.73;;;2.70;;
3253;SDS011;1639;42.804;23.342;2023-06-04T04:13:35;5.87;;;2.40;;
3253;SDS011;1639;42.804;23.342;2023-06-04T04:16:00;5.77;;;2.37;;
3253;SDS011;1639;42.804;23.342;2023-06-04T04:18:26;6.03;;;1.90;;
3253;SDS011;1639;42.804;23.342;2023-06-04T04:20:51;5.50;;;2.47;;
3253;SDS011;1639;42.804;23.342;2023-06-04T04:23:17;6.90;;;2.27;;
3253;SDS011;1639;42.804;23.342;2023-06-04T04:25:45;5.00;;;1.67;;
3253;SDS011;1639;42.804;23.342;2023-06-04T04:28:11;5.53;;;1.63;;
3253;SDS011;1639;42.804;23.342;2023-06-04T04:30:36;8.03;;;3.20;;
3253;SDS011;1639;42.804;23.342;2023-06-04T04:33:02;9.87;;;2.30;;
3253;SDS011;1639;42.804;23.342;2023-06-04T04:35:30;7.17;;;2.60;;
3253;SDS011;1639;42.804;23.342;2023-06-04T04:37:57;5.20;;;1.77;;
3253;SDS011;1639;42.804;23.342;2023-06-04T04:40:23;5.10;;;1.80;;
3253;SDS011;1639;42.804;23.342;2023-06-04T04:42:48;5.77;;;2.30;;
3253;SDS011;1639;42.804;23.342;2023-06-04T04:45:14;5.83;;;1.90;;
3253;SDS011;1639;42.804;23.342;2023-06-04T04:47:39;5.20;;;1.83;;
3253;SDS011;1639;42.804;23.342;2023-06-04T04:50:05;8.70;;;2.00;;
3253;SDS011;1639;42.804;23.342;2023-06-04T04:52:31;7.60;;;2.43;;
3253;SDS011;1639;42.804;23.342;2023-06-04T04:54:56;5.80;;;2.07;;
3253;SDS011;1639;42.804;23.342;2023-06-04T04:57:23;5.60;;;2.37;;
3253;SDS011;1639;42.804;23.342;2023-06-04T04:59:48;6.40;;;2.50;;
3253;SDS011;1639;42.804;23.342;2023-06-04T05:02:14;6.47;;;2.40;;
3253;SDS011;1639;42.804;23.342;2023-06-04T05:04:40;5.77;;;2.13;;
3253;SDS011;1639;42.804;23.342;2023-06-04T05:07:05;5.20;;;1.83;;
3253;SDS011;1639;42.804;23.342;2023-06-04T05:09:31;5.50;;;2.00;;
3253;SDS011;1639;42.804;23.342;2023-06-04T05:11:56;5.03;;;1.90;;
3253;SDS011;1639;42.804;23.342;2023-06-04T05:14:22;5.20;;;1.97;;
3253;SDS011;1639;42.804;23.342;2023-06-04T05:16:48;5.57;;;2.40;;
3253;SDS011;1639;42.804;23.342;2023-06-04T05:19:15;10.90;;;2.37;;
3253;SDS011;1639;42.804;23.342;2023-06-04T05:21:42;5.50;;;2.10;;
3253;SDS011;1639;42.804;23.342;2023-06-04T05:24:08;5.60;;;2.53;;
3253;SDS011;1639;42.804;23.342;2023-06-04T05:26:34;7.23;;;2.30;;
3253;SDS011;1639;42.804;23.342;2023-06-04T05:29:00;12.83;;;3.17;;
3253;SDS011;1639;42.804;23.342;2023-06-04T05:31:26;5.17;;;1.83;;
3253;SDS011;1639;42.804;23.342;2023-06-04T05:33:52;6.50;;;2.50;;
3253;SDS011;1639;42.804;23.342;2023-06-04T05:36:17;5.57;;;1.97;;
3253;SDS011;1639;42.804;23.342;2023-06-04T05:38:43;4.80;;;1.67;;
3253;SDS011;1639;42.804;23.342;2023-06-04T05:41:08;8.40;;;2.90;;
3253;SDS011;1639;42.804;23.342;2023-06-04T05:43:34;5.30;;;1.63;;
3253;SDS011;1639;42.804;23.342;2023-06-04T05:46:00;5.30;;;2.30;;
3253;SDS011;1639;42.804;23.342;2023-06-04T05:48:25;5.73;;;2.40;;
3253;SDS011;1639;42.804;23.342;2023-06-04T05:50:51;7.03;;;2.27;;
3253;SDS011;1639;42.804;23.342;2023-06-04T05:53:16;5.33;;;1.87;;
3253;SDS011;1639;42.804;23.342;2023-06-04T05:55:43;6.80;;;2.13;;
3253;SDS011;1639;42.804;23.342;2023-06-04T05:58:08;5.00;;;1.93;;
3253;SDS011;1639;42.804;23.342;2023-06-04T06:00:34;7.23;;;2.57;;
3253;SDS011;1639;42.804;23.342;2023-06-04T06:03:00;5.50;;;2.40;;
3253;SDS011;1639;42.804;23.342;2023-06-04T06:05:26;5.00;;;1.60;;
3253;SDS011;1639;42.804;23.342;2023-06-04T06:07:51;5.60;;;2.13;;
3253;SDS011;1639;42.804;23.342;2023-06-04T06:10:17;5.70;;;2.70;;
3253;SDS011;1639;42.804;23.342;2023-06-04T06:12:42;6.30;;;2.40;;
3253;SDS011;1639;42.804;23.342;2023-06-04T06:15:08;5.77;;;1.83;;
3253;SDS011;1639;42.804;23.342;2023-06-04T06:17:34;6.93;;;2.03;;
3253;SDS011;1639;42.804;23.342;2023-06-04T06:20:00;5.10;;;1.87;;
3253;SDS011;1639;42.804;23.342;2023-06-04T06:22:28;5.43;;;2.10;;
3253;SDS011;1639;42.804;23.342;2023-06-04T06:24:54;5.33;;;1.93;;
3253;SDS011;1639;42.804;23.342;2023-06-04T06:27:20;7.47;;;2.17;;
3253;SDS011;1639;42.804;23.342;2023-06-04T06:29:45;5.17;;;1.87;;
3253;SDS011;1639;42.804;23.342;2023-06-04T06:32:11;4.90;;;1.70;;
3253;SDS011;1639;42.804;23.342;2023-06-04T06:34:36;6.80;;;2.50;;
3253;SDS011;1639;42.804;23.342;2023-06-04T06:37:06;5.43;;;1.97;;
3253;SDS011;1639;42.804;23.342;2023-06-04T06:39:32;5.13;;;1.97;;
3253;SDS011;1639;42.804;23.342;2023-06-04T06:41:57;5.30;;;1.90;;
3253;SDS011;1639;42.804;23.342;2023-06-04T06:44:23;5.27;;;2.17;;
3253;SDS011;1639;42.804;23.342;2023-06-04T06:46:48;5.17;;;2.20;;
3253;SDS011;1639;42.804;23.342;2023-06-04T06:49:14;4.90;;;1.77;;
3253;SDS011;1639;42.804;23.342;2023-06-04T06:51:40;5.07;;;2.27;;
3253;SDS011;1639;42.804;23.342;2023-06-04T06:54:05;6.80;;;3.00;;
3253;SDS011;1639;42.804;23.342;2023-06-04T06:56:33;7.10;;;2.10;;
3253;SDS011;1639;42.804;23.342;2023-06-04T06:58:58;6.00;;;2.47;;
3253;SDS011;1639;42.804;23.342;2023-06-04T07:01:24;5.67;;;2.53;;
3253;SDS011;1639;42.804;23.342;2023-06-04T07:03:49;5.00;;;1.80;;
3253;SDS011;1639;42.804;23.342;2023-06-04T07:06:15;5.10;;;1.80;;
3253;SDS011;1639;42.804;23.342;2023-06-04T07:08:41;5.63;;;2.13;;
3253;SDS011;1639;42.804;23.342;2023-06-04T07:11:07;5.10;;;1.57;;
3253;SDS011;1639;42.804;23.342;2023-06-04T07:13:36;5.30;;;2.10;;
3253;SDS011;1639;42.804;23.342;2023-06-04T07:16:02;7.00;;;2.33;;
3253;SDS011;1639;42.804;23.342;2023-06-04T07:18:28;6.37;;;2.57;;
3253;SDS011;1639;42.804;23.342;2023-06-04T07:20:53;5.13;;;1.80;;
3253;SDS011;1639;42.804;23.342;2023-06-04T07:23:18;5.40;;;2.20;;
3253;SDS011;1639;42.804;23.342;2023-06-04T07:25:44;5.47;;;2.33;;
3253;SDS011;1639;42.804;23.342;2023-06-04T07:28:09;5.10;;;2.00;;
3253;SDS011;1639;42.804;23.342;2023-06-04T07:30:35;6.03;;;2.40;;
3253;SDS011;1639;42.804;23.342;2023-06-04T07:33:01;5.00;;;1.90;;
3253;SDS011;1639;42.804;23.342;2023-06-04T07:35:27;5.27;;;2.07;;
3253;SDS011;1639;42.804;23.342;2023-06-04T07:37:53;7.20;;;2.10;;
3253;SDS011;1639;42.804;23.342;2023-06-04T07:40:19;5.50;;;2.07;;
3253;SDS011;1639;42.804;23.342;2023-06-04T07:42:45;5.80;;;2.23;;
3253;SDS011;1639;42.804;23.342;2023-06-04T07:45:12;5.00;;;2.07;;
3253;SDS011;1639;42.804;23.342;2023-06-04T07:47:37;5.30;;;2.23;;
3253;SDS011;1639;42.804;23.342;2023-06-04T07:50:03;6.90;;;2.60;;
3253;SDS011;1639;42.804;23.342;2023-06-04T07:52:30;5.40;;;1.93;;
3253;SDS011;1639;42.804;23.342;2023-06-04T07:54:55;5.50;;;2.30;;
3253;SDS011;1639;42.804;23.342;2023-06-04T07:57:21;5.00;;;1.90;;
3253;SDS011;1639;42.804;23.342;2023-06-04T07:59:47;5.70;;;2.30;;
3253;SDS011;1639;42.804;23.342;2023-06-04T08:02:12;5.00;;;1.70;;
3253;SDS011;1639;42.804;23.342;2023-06-04T08:04:39;5.50;;;2.20;;
3253;SDS011;1639;42.804;23.342;2023-06-04T08:07:05;8.40;;;2.63;;
3253;SDS011;1639;42.804;23.342;2023-06-04T08:09:30;5.53;;;2.27;;
3253;SDS011;1639;42.804;23.342;2023-06-04T08:11:56;5.70;;;2.40;;
3253;SDS011;1639;42.804;23.342;2023-06-04T08:14:21;5.93;;;3.27;;
3253;SDS011;1639;42.804;23.342;2023-06-04T08:16:48;5.67;;;2.43;;
3253;SDS011;1639;42.804;23.342;2023-06-04T08:19:14;5.23;;;2.57;;
3253;SDS011;1639;42.804;23.342;2023-06-04T08:21:40;7.93;;;3.00;;
3253;SDS011;1639;42.804;23.342;2023-06-04T08:24:09;5.20;;;2.30;;
3253;SDS011;1639;42.804;23.342;2023-06-04T08:26:34;6.20;;;2.63;;
3253;SDS011;1639;42.804;23.342;2023-06-04T08:29:02;6.50;;;3.63;;
3253;SDS011;1639;42.804;23.342;2023-06-04T08:31:29;6.87;;;3.20;;
3253;SDS011;1639;42.804;23.342;2023-06-04T08:33:54;8.00;;;4.50;;
3253;SDS011;1639;42.804;23.342;2023-06-04T08:36:19;8.63;;;3.60;;
3253;SDS011;1639;42.804;23.342;2023-06-04T08:38:45;7.10;;;3.20;;
3253;SDS011;1639;42.804;23.342;2023-06-04T08:43:59;6.33;;;3.30;;
3253;SDS011;1639;42.804;23.342;2023-06-04T08:46:26;10.40;;;2.93;;
3253;SDS011;1639;42.804;23.342;2023-06-04T08:48:53;7.57;;;3.47;;
3253;SDS011;1639;42.804;23.342;2023-06-04T08:51:21;8.33;;;2.80;;
3253;SDS011;1639;42.804;23.342;2023-06-04T08:53:46;7.53;;;3.10;;
3253;SDS011;1639;42.804;23.342;2023-06-04T08:56:15;7.20;;;3.07;;
3253;SDS011;1639;42.804;23.342;2023-06-04T08:58:42;5.73;;;2.83;;
3253;SDS011;1639;42.804;23.342;2023-06-04T09:01:09;6.10;;;2.97;;
3253;SDS011;1639;42.804;23.342;2023-06-04T09:03:35;7.70;;;2.70;;
3253;SDS011;1639;42.804;23.342;2023-06-04T09:06:02;6.00;;;2.60;;
3253;SDS011;1639;42.804;23.342;2023-06-04T09:08:31;6.00;;;2.80;;
3253;SDS011;1639;42.804;23.342;2023-06-04T09:11:00;6.87;;;2.97;;
3253;SDS011;1639;42.804;23.342;2023-06-04T09:13:30;6.70;;;2.80;;
3253;SDS011;1639;42.804;23.342;2023-06-04T09:16:03;6.80;;;3.20;;
3253;SDS011;1639;42.804;23.342;2023-06-04T09:18:30;5.20;;;2.50;;
3253;SDS011;1639;42.804;23.342;2023-06-04T09:21:00;7.73;;;2.50;;
3253;SDS011;1639;42.804;23.342;2023-06-04T09:23:36;6.53;;;3.30;;
3253;SDS011;1639;42.804;23.342;2023-06-04T09:26:08;5.20;;;2.53;;
3253;SDS011;1639;42.804;23.342;2023-06-04T09:28:35;7.47;;;2.93;;
3253;SDS011;1639;42.804;23.342;2023-06-04T09:31:01;5.50;;;2.83;;
3253;SDS011;1639;42.804;23.342;2023-06-04T09:33:29;8.37;;;4.00;;
3253;SDS011;1639;42.804;23.342;2023-06-04T09:35:55;7.30;;;2.80;;
3253;SDS011;1639;42.804;23.342;2023-06-04T09:38:21;6.53;;;3.23;;
3253;SDS011;1639;42.804;23.342;2023-06-04T09:40:47;5.90;;;2.67;;
3253;SDS011;1639;42.804;23.342;2023-06-04T09:43:23;8.20;;;3.33;;
3253;SDS011;1639;42.804;23.342;2023-06-04T09:45:48;9.03;;;3.23;;
3253;SDS011;1639;42.804;23.342;2023-06-04T09:48:20;8.00;;;4.03;;
3253;SDS011;1639;42.804;23.342;2023-06-04T09:50:46;13.67;;;4.20;;
3253;SDS011;1639;42.804;23.342;2023-06-04T09:53:13;8.40;;;4.17;;
3253;SDS011;1639;42.804;23.342;2023-06-04T09:55:40;7.57;;;3.20;;
3253;SDS011;1639;42.804;23.342;2023-06-04T09:58:06;10.20;;;3.47;;
3253;SDS011;1639;42.804;23.342;2023-06-04T10:00:32;5.90;;;3.00;;
3253;SDS011;1639;42.804;23.342;2023-06-04T10:02:59;6.80;;;3.10;;
3253;SDS011;1639;42.804;23.342;2023-06-04T10:05:27;7.40;;;3.87;;
3253;SDS011;1639;42.804;23.342;2023-06-04T10:07:57;6.63;;;3.40;;
3253;SDS011;1639;42.804;23.342;2023-06-04T10:10:25;8.13;;;4.37;;
3253;SDS011;1639;42.804;23.342;2023-06-04T10:13:00;5.33;;;2.90;;
3253;SDS011;1639;42.804;23.342;2023-06-04T10:15:31;6.50;;;3.80;;
3253;SDS011;1639;42.804;23.342;2023-06-04T10:17:59;8.67;;;3.50;;
3253;SDS011;1639;42.804;23.342;2023-06-04T10:20:26;5.50;;;2.50;;
3253;SDS011;1639;42.804;23.342;2023-06-04T10:22:52;8.20;;;3.83;;
3253;SDS011;1639;42.804;23.342;2023-06-04T10:25:20;8.60;;;2.90;;
3253;SDS011;1639;42.804;23.342;2023-06-04T10:27:45;5.70;;;3.13;;
3253;SDS011;1639;42.804;23.342;2023-06-04T10:30:11;6.80;;;3.13;;
3253;SDS011;1639;42.804;23.342;2023-06-04T10:32:37;6.80;;;3.57;;
3253;SDS011;1639;42.804;23.342;2023-06-04T10:35:03;5.57;;;2.90;;
3253;SDS011;1639;42.804;23.342;2023-06-04T10:37:29;5.87;;;2.80;;
3253;SDS011;1639;42.804;23.342;2023-06-04T10:39:56;7.00;;;3.63;;
3253;SDS011;1639;42.804;23.342;2023-06-04T10:42:22;10.50;;;4.40;;
3253;SDS011;1639;42.804;23.342;2023-06-04T10:44:50;6.93;;;3.97;;
3253;SDS011;1639;42.804;23.342;2023-06-04T10:47:23;7.30;;;3.67;;
3253;SDS011;1639;42.804;23.342;2023-06-04T10:49:50;6.70;;;3.27;;
3253;SDS011;1639;42.804;23.342;2023-06-04T10:52:16;5.57;;;2.70;;
3253;SDS011;1639;42.804;23.342;2023-06-04T10:54:42;7.23;;;2.80;;
3253;SDS011;1639;42.804;23.342;2023-06-04T10:57:15;7.80;;;3.43;;
3253;SDS011;1639;42.804;23.342;2023-06-04T10:59:42;8.30;;;4.30;;
3253;SDS011;1639;42.804;23.342;2023-06-04T11:02:18;8.23;;;3.37;;
3253;SDS011;1639;42.804;23.342;2023-06-04T11:04:44;5.83;;;3.03;;
3253;SDS011;1639;42.804;23.342;2023-06-04T11:07:09;6.13;;;2.93;;
3253;SDS011;1639;42.804;23.342;2023-06-04T11:09:35;6.27;;;3.50;;
3253;SDS011;1639;42.804;23.342;2023-06-04T11:12:02;5.70;;;2.53;;
3253;SDS011;1639;42.804;23.342;2023-06-04T11:14:29;7.60;;;3.30;;
3253;SDS011;1639;42.804;23.342;2023-06-04T11:16:54;6.23;;;3.77;;
3253;SDS011;1639;42.804;23.342;2023-06-04T11:19:20;7.50;;;3.67;;
3253;SDS011;1639;42.804;23.342;2023-06-04T11:21:45;6.33;;;3.30;;
3253;SDS011;1639;42.804;23.342;2023-06-04T11:24:14;6.00;;;3.57;;
3253;SDS011;1639;42.804;23.342;2023-06-04T11:26:41;5.77;;;3.27;;
3253;SDS011;1639;42.804;23.342;2023-06-04T11:29:10;6.90;;;3.67;;
3253;SDS011;1639;42.804;23.342;2023-06-04T11:31:48;7.23;;;4.90;;
3253;SDS011;1639;42.804;23.342;2023-06-04T11:36:56;8.13;;;4.07;;
3253;SDS011;1639;42.804;23.342;2023-06-04T11:39:34;7.43;;;3.93;;
3253;SDS011;1639;42.804;23.342;2023-06-04T11:42:06;9.10;;;3.23;;
3253;SDS011;1639;42.804;23.342;2023-06-04T11:44:32;7.03;;;3.73;;
3253;SDS011;1639;42.804;23.342;2023-06-04T11:46:57;10.10;;;3.63;;
3253;SDS011;1639;42.804;23.342;2023-06-04T11:49:23;7.53;;;3.17;;
3253;SDS011;1639;42.804;23.342;2023-06-04T11:51:50;6.23;;;3.33;;
3253;SDS011;1639;42.804;23.342;2023-06-04T11:54:19;6.47;;;3.40;;
3253;SDS011;1639;42.804;23.342;2023-06-04T11:56:46;5.37;;;3.10;;
3253;SDS011;1639;42.804;23.342;2023-06-04T11:59:15;10.80;;;4.03;;
3253;SDS011;1639;42.804;23.342;2023-06-04T12:01:44;6.07;;;3.37;;
3253;SDS011;1639;42.804;23.342;2023-06-04T12:04:15;5.60;;;2.70;;
3253;SDS011;1639;42.804;23.342;2023-06-04T12:06:54;7.30;;;3.37;;
3253;SDS011;1639;42.804;23.342;2023-06-04T12:09:24;6.40;;;3.40;;
3253;SDS011;1639;42.804;23.342;2023-06-04T12:11:59;5.67;;;2.90;;
3253;SDS011;1639;42.804;23.342;2023-06-04T12:14:26;6.00;;;3.00;;
3253;SDS011;1639;42.804;23.342;2023-06-04T12:17:09;5.87;;;3.27;;
3253;SDS011;1639;42.804;23.342;2023-06-04T12:19:45;6.63;;;2.80;;
3253;SDS011;1639;42.804;23.342;2023-06-04T12:22:13;6.80;;;3.60;;
3253;SDS011;1639;42.804;23.342;2023-06-04T12:24:49;7.47;;;3.40;;
3253;SDS011;1639;42.804;23.342;2023-06-04T12:27:19;9.10;;;3.20;;
3253;SDS011;1639;42.804;23.342;2023-06-04T12:29:59;5.10;;;2.63;;
3253;SDS011;1639;42.804;23.342;2023-06-04T12:32:25;6.00;;;3.20;;
3253;SDS011;1639;42.804;23.342;2023-06-04T12:34:51;6.13;;;2.93;;
3253;SDS011;1639;42.804;23.342;2023-06-04T12:37:17;5.70;;;3.20;;
3253;SDS011;1639;42.804;23.342;2023-06-04T12:39:43;8.63;;;3.30;;
3253;SDS011;1639;42.804;23.342;2023-06-04T12:42:08;5.27;;;2.77;;
3253;SDS011;1639;42.804;23.342;2023-06-04T12:44:40;6.10;;;3.70;;
3253;SDS011;1639;42.804;23.342;2023-06-04T12:47:06;9.63;;;3.80;;
3253;SDS011;1639;42.804;23.342;2023-06-04T12:49:33;6.00;;;3.00;;
3253;SDS011;1639;42.804;23.342;2023-06-04T12:51:58;9.37;;;3.87;;
3253;SDS011;1639;42.804;23.342;2023-06-04T12:54:24;6.17;;;3.40;;
3253;SDS011;1639;42.804;23.342;2023-06-04T12:56:49;6.63;;;3.30;;
3253;SDS011;1639;42.804;23.342;2023-06-04T12:59:15;6.37;;;2.57;;
3253;SDS011;1639;42.804;23.342;2023-06-04T13:01:41;6.27;;;3.27;;
3253;SDS011;1639;42.804;23.342;2023-06-04T13:04:06;5.90;;;3.00;;
3253;SDS011;1639;42.804;23.342;2023-06-04T13:06:33;7.23;;;3.50;;
3253;SDS011;1639;42.804;23.342;2023-06-04T13:09:00;5.40;;;3.30;;
3253;SDS011;1639;42.804;23.342;2023-06-04T13:11:26;5.83;;;3.53;;
3253;SDS011;1639;42.804;23.342;2023-06-04T13:13:51;7.70;;;4.17;;
3253;SDS011;1639;42.804;23.342;2023-06-04T13:16:17;8.30;;;3.67;;
3253;SDS011;1639;42.804;23.342;2023-06-04T13:18:42;14.07;;;4.17;;
3253;SDS011;1639;42.804;23.342;2023-06-04T13:21:07;5.60;;;3.23;;
3253;SDS011;1639;42.804;23.342;2023-06-04T13:23:33;8.60;;;4.70;;
3253;SDS011;1639;42.804;23.342;2023-06-04T13:25:58;7.03;;;3.83;;
3253;SDS011;1639;42.804;23.342;2023-06-04T13:28:25;7.60;;;3.77;;
3253;SDS011;1639;42.804;23.342;2023-06-04T13:30:51;7.10;;;3.20;;
3253;SDS011;1639;42.804;23.342;2023-06-04T13:33:16;10.07;;;4.07;;
3253;SDS011;1639;42.804;23.342;2023-06-04T13:35:44;6.30;;;3.00;;
3253;SDS011;1639;42.804;23.342;2023-06-04T13:38:09;6.40;;;2.40;;
3253;SDS011;1639;42.804;23.342;2023-06-04T13:40:35;5.10;;;2.47;;
3253;SDS011;1639;42.804;23.342;2023-06-04T13:43:01;6.17;;;3.20;;
3253;SDS011;1639;42.804;23.342;2023-06-04T13:45:27;5.53;;;3.07;;
3253;SDS011;1639;42.804;23.342;2023-06-04T13:47:52;6.47;;;2.80;;
3253;SDS011;1639;42.804;23.342;2023-06-04T13:50:18;6.93;;;2.30;;
3253;SDS011;1639;42.804;23.342;2023-06-04T13:52:43;6.23;;;4.00;;
3253;SDS011;1639;42.804;23.342;2023-06-04T13:55:11;5.70;;;3.20;;
3253;SDS011;1639;42.804;23.342;2023-06-04T13:57:38;6.37;;;2.83;;
3253;SDS011;1639;42.804;23.342;2023-06-04T14:00:03;5.47;;;2.27;;
3253;SDS011;1639;42.804;23.342;2023-06-04T14:02:29;5.70;;;2.33;;
3253;SDS011;1639;42.804;23.342;2023-06-04T14:04:55;6.50;;;2.77;;
3253;SDS011;1639;42.804;23.342;2023-06-04T14:07:20;7.43;;;3.30;;
3253;SDS011;1639;42.804;23.342;2023-06-04T14:09:46;8.30;;;2.60;;
3253;SDS011;1639;42.804;23.342;2023-06-04T14:12:11;6.23;;;2.20;;
3253;SDS011;1639;42.804;23.342;2023-06-04T14:14:38;8.80;;;4.20;;
3253;SDS011;1639;42.804;23.342;2023-06-04T14:17:03;6.53;;;2.60;;
3253;SDS011;1639;42.804;23.342;2023-06-04T14:19:30;5.47;;;2.60;;
3253;SDS011;1639;42.804;23.342;2023-06-04T14:21:55;5.57;;;2.77;;
3253;SDS011;1639;42.804;23.342;2023-06-04T14:24:21;5.00;;;2.67;;
3253;SDS011;1639;42.804;23.342;2023-06-04T14:26:46;6.50;;;2.43;;
3253;SDS011;1639;42.804;23.342;2023-06-04T14:29:12;5.27;;;2.73;;
3253;SDS011;1639;42.804;23.342;2023-06-04T14:31:38;5.67;;;2.67;;
3253;SDS011;1639;42.804;23.342;2023-06-04T14:34:04;6.43;;;3.03;;
3253;SDS011;1639;42.804;23.342;2023-06-04T14:36:29;5.80;;;2.77;;
3253;SDS011;1639;42.804;23.342;2023-06-04T14:38:55;7.03;;;3.00;;
3253;SDS011;1639;42.804;23.342;2023-06-04T14:41:21;5.90;;;2.60;;
3253;SDS011;1639;42.804;23.342;2023-06-04T14:43:47;7.83;;;3.20;;
3253;SDS011;1639;42.804;23.342;2023-06-04T14:46:12;5.70;;;2.80;;
3253;SDS011;1639;42.804;23.342;2023-06-04T14:48:37;5.03;;;2.13;;
3253;SDS011;1639;42.804;23.342;2023-06-04T14:51:03;6.30;;;2.43;;
3253;SDS011;1639;42.804;23.342;2023-06-04T14:53:28;4.93;;;2.43;;
3253;SDS011;1639;42.804;23.342;2023-06-04T14:55:53;5.87;;;2.77;;
3253;SDS011;1639;42.804;23.342;2023-06-04T14:58:19;4.87;;;2.07;;
3253;SDS011;1639;42.804;23.342;2023-06-04T15:00:45;5.60;;;1.80;;
3253;SDS011;1639;42.804;23.342;2023-06-04T15:03:10;5.53;;;2.07;;
3253;SDS011;1639;42.804;23.342;2023-06-04T15:05:36;5.70;;;2.53;;
3253;SDS011;1639;42.804;23.342;2023-06-04T15:08:02;5.30;;;2.37;;
3253;SDS011;1639;42.804;23.342;2023-06-04T15:10:28;6.10;;;2.10;;
3253;SDS011;1639;42.804;23.342;2023-06-04T15:12:54;4.90;;;2.00;;